Dades meteomassalio
Diari Summary for Diciembre 9, 2017 Units:  English    Metric   Both
« Previous Day
Next Day »
Diari Semanal Mensual Anual Personalitzat
  Maxima: Minima: Mijana:
Temperatura: TemperatureC °F 5.6 °F 8 °F
Rosada: DewpointC °F -0.9 °F 2.3 °F
Humitat: Humidity % 51 % 67 %
Velocitat del vent: WindSpeedKMH mph 0.0 mph 19.1 mph
Racha vent: WindSpeedGustKMH mph - -
Vent:- - NW
Pressio: PressurehPa in 1022.2 in -
Pluja: 0.0 in    
Historical Graphs
 
 
Tabular Data for Diciembre 9, 2017
Time Temperature Dew Point Pressure Wind Wind Speed Wind Gust Humidity Rainfall Rate (Hourly) solar Conditions
TemperatureC °F DewpointC °F PressurehPa in Calm     Humidity % HourlyPrecipMM in SolarRadiationWatts/m^2 W/m2 Conditions
00:02 7.8 °F 3.6 °F 1027.3 in NNW 18.5 mph 18.5 mph 75 % 0.0 in 0.0 W/m2 CLR
00:07 7.8 °F 3.6 °F 1027.3 in NW 18.5 mph 18.5 mph 75 % 0.0 in 0.0 W/m2 CLR
00:17 7.8 °F 3.6 °F 1027.0 in NW 20.4 mph 20.4 mph 75 % 0.0 in 0.0 W/m2 CLR
00:22 7.8 °F 3.6 °F 1027.0 in NW 20.9 mph 20.9 mph 75 % 0.0 in 0.0 W/m2 CLR
00:27 7.8 °F 3.6 °F 1027.0 in WNW 24.1 mph 24.1 mph 75 % 0.0 in 0.0 W/m2 CLR
00:32 7.8 °F 3.4 °F 1027.0 in NW 22.2 mph 22.2 mph 74 % 0.0 in 0.0 W/m2 CLR
00:37 7.8 °F 3.4 °F 1027.0 in NW 25.9 mph 25.9 mph 74 % 0.0 in 0.0 W/m2 CLR
00:42 7.8 °F 3.4 °F 1026.6 in NW 18.5 mph 18.5 mph 74 % 0.0 in 0.0 W/m2 CLR
00:47 7.8 °F 3.2 °F 1026.6 in NW 19.3 mph 19.3 mph 73 % 0.0 in 0.0 W/m2 CLR
00:52 7.8 °F 3.2 °F 1027.0 in NNW 11.1 mph 11.1 mph 73 % 0.0 in 0.0 W/m2 CLR
00:57 7.8 °F 3.2 °F 1027.0 in WNW 18.5 mph 18.5 mph 73 % 0.0 in 0.0 W/m2 CLR
01:02 7.8 °F 3.2 °F 1027.0 in NNW 29.6 mph 29.6 mph 73 % 0.0 in 0.0 W/m2 CLR
01:07 7.8 °F 3.2 °F 1027.0 in NW 19.3 mph 19.3 mph 73 % 0.0 in 0.0 W/m2 CLR
01:12 7.8 °F 3.1 °F 1026.6 in NNW 24.1 mph 24.1 mph 72 % 0.0 in 0.0 W/m2 CLR
01:17 7.8 °F 3.2 °F 1026.6 in NW 25.9 mph 25.9 mph 73 % 0.0 in 0.0 W/m2 CLR
01:19 7.8 °F 3.2 °F 1026.6 in NW 25.9 mph 25.9 mph 73 % 0.0 in 0.0 W/m2 CLR
01:24 7.2 °F 2.7 °F 1026.6 in WNW 25.9 mph 25.9 mph 73 % 0.0 in 0.0 W/m2 CLR
01:29 7.8 °F 3.2 °F 1026.6 in NW 24.1 mph 24.1 mph 73 % 0.0 in 0.0 W/m2 CLR
01:39 7.8 °F 3.4 °F 1026.6 in NNW 40.7 mph 40.7 mph 74 % 0.0 in 0.0 W/m2 CLR
01:49 7.8 °F 3.4 °F 1026.6 in NW 29.6 mph 29.6 mph 74 % 0.0 in 0.0 W/m2 CLR
01:54 7.8 °F 3.4 °F 1026.6 in NW 25.9 mph 25.9 mph 74 % 0.0 in 0.0 W/m2 CLR
01:59 7.8 °F 3.4 °F 1026.6 in NW 24.1 mph 24.1 mph 74 % 0.0 in 0.0 W/m2 CLR
02:04 7.8 °F 3.4 °F 1026.6 in NNW 22.2 mph 22.2 mph 74 % 0.0 in 0.0 W/m2 CLR
02:09 7.2 °F 2.9 °F 1027.0 in NW 24.1 mph 24.1 mph 74 % 0.0 in 0.0 W/m2 CLR
02:14 7.8 °F 3.6 °F 1026.6 in NW 19.3 mph 19.3 mph 75 % 0.0 in 0.0 W/m2 CLR
02:29 7.2 °F 2.9 °F 1026.6 in NNW 27.4 mph 27.4 mph 74 % 0.0 in 0.0 W/m2 CLR
02:34 7.2 °F 2.9 °F 1026.3 in NNW 24.1 mph 24.1 mph 74 % 0.0 in 0.0 W/m2 CLR
02:39 7.2 °F 2.9 °F 1026.3 in WNW 31.5 mph 31.5 mph 74 % 0.0 in 0.0 W/m2 CLR
02:44 7.2 °F 2.9 °F 1026.3 in NNW 24.1 mph 24.1 mph 74 % 0.0 in 0.0 W/m2 CLR
02:49 7.2 °F 2.9 °F 1026.3 in NW 31.5 mph 31.5 mph 74 % 0.0 in 0.0 W/m2 CLR
02:54 7.2 °F 3.1 °F 1026.3 in NW 38.9 mph 38.9 mph 75 % 0.0 in 0.0 W/m2 CLR
03:09 7.2 °F 3.3 °F 1026.3 in North 27.8 mph 27.8 mph 76 % 0.0 in 0.0 W/m2 CLR
03:14 7.2 °F 3.3 °F 1026.3 in NW 31.5 mph 31.5 mph 76 % 0.0 in 0.0 W/m2 CLR
03:19 7.2 °F 3.3 °F 1026.3 in NNW 31.5 mph 31.5 mph 76 % 0.0 in 0.0 W/m2 CLR
03:24 7.2 °F 3.3 °F 1026.3 in NW 35.2 mph 35.2 mph 76 % 0.0 in 0.0 W/m2 CLR
03:29 7.2 °F 3.3 °F 1026.3 in NW 29.6 mph 29.6 mph 76 % 0.0 in 0.0 W/m2 CLR
03:34 7.2 °F 3.1 °F 1026.3 in NW 31.5 mph 31.5 mph 75 % 0.0 in 0.0 W/m2 CLR
03:39 7.2 °F 3.3 °F 1026.3 in NW 17.7 mph 17.7 mph 76 % 0.0 in 0.0 W/m2 CLR
03:44 7.2 °F 3.3 °F 1026.3 in NW 27.4 mph 27.4 mph 76 % 0.0 in 0.0 W/m2 CLR
03:54 6.7 °F 2.9 °F 1026.3 in NW 27.8 mph 27.8 mph 77 % 0.0 in 0.0 W/m2 CLR
04:04 6.7 °F 2.9 °F 1026.0 in NNW 22.5 mph 22.5 mph 77 % 0.0 in 0.0 W/m2 CLR
04:09 6.7 °F 2.7 °F 1026.0 in NW 27.8 mph 27.8 mph 76 % 0.0 in 0.0 W/m2 CLR
04:16 7.2 °F 3.1 °F 1025.6 in NNW 31.5 mph 31.5 mph 75 % 0.0 in 0.0 W/m2 CLR
04:18 7.2 °F 3.1 °F 1026.0 in North 31.5 mph 31.5 mph 75 % 0.0 in 0.0 W/m2 CLR
04:23 7.2 °F 3.1 °F 1025.6 in NNW 46.7 mph 46.7 mph 75 % 0.0 in 0.0 W/m2 CLR
04:24 7.2 °F 2.9 °F 1026.0 in NNW 48.1 mph 48.1 mph 74 % 0.0 in 0.0 W/m2 CLR
04:29 7.2 °F 2.9 °F 1026.0 in North 33.3 mph 33.3 mph 74 % 0.0 in 0.0 W/m2 CLR
04:30 7.2 °F 2.9 °F 1026.0 in North 35.2 mph 35.2 mph 74 % 0.0 in 0.0 W/m2 CLR
04:35 7.2 °F 2.9 °F 1026.0 in NW 29.6 mph 29.6 mph 74 % 0.0 in 0.0 W/m2 CLR
04:40 7.2 °F 3.1 °F 1026.0 in NNW 31.5 mph 31.5 mph 75 % 0.0 in 0.0 W/m2 CLR
04:45 7.2 °F 3.1 °F 1026.0 in NNW 27.8 mph 27.8 mph 75 % 0.0 in 0.0 W/m2 CLR
04:50 6.7 °F 2.6 °F 1026.0 in NW 31.5 mph 31.5 mph 75 % 0.0 in 0.0 W/m2 CLR
04:55 6.7 °F 2.6 °F 1026.0 in North 29.6 mph 29.6 mph 75 % 0.0 in 0.0 W/m2 CLR
05:00 6.7 °F 2.6 °F 1026.0 in NNW 32.2 mph 32.2 mph 75 % 0.0 in 0.0 W/m2 CLR
05:10 6.7 °F 2.3 °F 1026.0 in NW 29.6 mph 29.6 mph 74 % 0.0 in 0.0 W/m2 CLR
05:15 6.7 °F 2.3 °F 1026.0 in NNW 33.3 mph 33.3 mph 74 % 0.0 in 0.0 W/m2 CLR
05:20 6.7 °F 2.3 °F 1026.0 in NNW 31.5 mph 31.5 mph 74 % 0.0 in 0.0 W/m2 CLR
05:25 6.7 °F 2.6 °F 1026.0 in NW 31.5 mph 31.5 mph 75 % 0.0 in 0.0 W/m2 CLR
05:45 6.7 °F 2.7 °F 1025.6 in WNW 29.6 mph 29.6 mph 76 % 0.0 in 0.0 W/m2 CLR
05:55 6.7 °F 2.9 °F 1026.0 in NW 31.5 mph 31.5 mph 77 % 0.0 in 0.0 W/m2 CLR
06:00 6.7 °F 2.9 °F 1026.0 in NNW 35.2 mph 35.2 mph 77 % 0.0 in 0.0 W/m2 CLR
06:05 6.7 °F 2.9 °F 1026.0 in NW 22.5 mph 22.5 mph 77 % 0.0 in 0.0 W/m2 CLR
06:10 6.1 °F 2.2 °F 1026.0 in NNW 16.1 mph 16.1 mph 76 % 0.0 in 0.0 W/m2 CLR
06:15 6.1 °F 2.2 °F 1026.0 in NNW 17.7 mph 17.7 mph 76 % 0.0 in 0.0 W/m2 CLR
06:20 6.1 °F 2.2 °F 1026.0 in NNE 16.7 mph 16.7 mph 76 % 0.0 in 0.0 W/m2 CLR
06:25 6.1 °F 2.2 °F 1026.0 in NW 27.4 mph 27.4 mph 76 % 0.0 in 0.0 W/m2 CLR
06:30 6.1 °F 2.2 °F 1026.0 in West 24.1 mph 24.1 mph 76 % 0.0 in 0.0 W/m2 CLR
06:35 6.1 °F 2.2 °F 1026.0 in WNW 25.9 mph 25.9 mph 76 % 0.0 in 0.0 W/m2 CLR
06:40 6.1 °F 2.4 °F 1026.0 in NW 16.7 mph 16.7 mph 77 % 0.0 in 0.0 W/m2 CLR
06:45 6.1 °F 2.4 °F 1026.0 in NW 25.7 mph 25.7 mph 77 % 0.0 in 0.0 W/m2 CLR
06:50 6.1 °F 2.4 °F 1026.0 in North 20.4 mph 20.4 mph 77 % 0.0 in 0.0 W/m2 CLR
06:55 6.1 °F 2.6 °F 1026.0 in NNW 29.6 mph 29.6 mph 78 % 0.0 in 0.0 W/m2 CLR
07:05 6.1 °F 2.6 °F 1026.0 in NW 25.9 mph 25.9 mph 78 % 0.0 in 0.0 W/m2 CLR
07:10 6.1 °F 2.6 °F 1026.0 in WNW 29.6 mph 29.6 mph 78 % 0.0 in 0.0 W/m2 CLR
07:20 6.1 °F 2.4 °F 1026.0 in NW 35.2 mph 35.2 mph 77 % 0.0 in 0.0 W/m2 CLR
07:25 6.1 °F 2.4 °F 1026.0 in NNW 35.2 mph 35.2 mph 77 % 0.0 in 0.0 W/m2 CLR
07:31 6.1 °F 2.4 °F 1025.6 in NW 24.1 mph 24.1 mph 77 % 0.0 in 0.0 W/m2 CLR
07:36 6.1 °F 2.4 °F 1026.0 in NW 24.1 mph 24.1 mph 77 % 0.0 in 0.0 W/m2 CLR
07:46 6.1 °F 2.2 °F 1026.0 in WNW 24.1 mph 24.1 mph 76 % 0.0 in 0.0 W/m2 CLR
07:51 6.1 °F 2.2 °F 1026.0 in West 16.7 mph 16.7 mph 76 % 0.0 in 0.0 W/m2 CLR
07:56 6.1 °F 2.2 °F 1026.0 in West 27.8 mph 27.8 mph 76 % 0.0 in 0.0 W/m2 CLR
08:01 5.6 °F 1.7 °F 1026.0 in West 27.4 mph 27.4 mph 76 % 0.0 in 0.0 W/m2 CLR
08:06 5.6 °F 1.7 °F 1026.3 in WNW 13.0 mph 13.0 mph 76 % 0.0 in 0.0 W/m2 OVC
08:11 5.6 °F 1.8 °F 1026.3 in NW 16.7 mph 16.7 mph 77 % 0.0 in 0.0 W/m2 OVC
08:21 5.6 °F 1.8 °F 1026.3 in NW 29.6 mph 29.6 mph 77 % 0.0 in 7.0 W/m2 BKN
08:26 6.1 °F 2.4 °F 1026.3 in NNW 24.1 mph 24.1 mph 77 % 0.0 in 11.0 W/m2 BKN
08:36 6.1 °F 2.2 °F 1026.3 in NW 22.5 mph 22.5 mph 76 % 0.0 in 14.0 W/m2 BKN
08:41 6.1 °F 2.0 °F 1026.3 in NW 19.3 mph 19.3 mph 75 % 0.0 in 18.0 W/m2 BKN
08:46 6.1 °F 2.0 °F 1026.6 in WNW 20.9 mph 20.9 mph 75 % 0.0 in 25.0 W/m2 BKN
08:51 6.1 °F 2.0 °F 1026.6 in WNW 24.1 mph 24.1 mph 75 % 0.0 in 37.0 W/m2 BKN
08:56 6.1 °F 2.0 °F 1026.6 in NNW 31.5 mph 31.5 mph 75 % 0.0 in 44.0 W/m2 BKN
09:01 6.1 °F 2.0 °F 1026.6 in NW 25.9 mph 25.9 mph 75 % 0.0 in 49.0 W/m2 SCT
09:11 6.7 °F 2.2 °F 1026.6 in NW 24.1 mph 24.1 mph 73 % 0.0 in 79.0 W/m2 FEW
09:21 6.7 °F 2.2 °F 1027.0 in NW 14.8 mph 14.8 mph 73 % 0.0 in 98.0 W/m2 CLR
09:31 6.7 °F 2.0 °F 1027.0 in NNW 25.9 mph 25.9 mph 72 % 0.0 in 134.0 W/m2 CLR
09:46 7.2 °F 2.1 °F 1027.3 in NW 31.5 mph 31.5 mph 70 % 0.0 in 130.0 W/m2 CLR
09:51 7.2 °F 2.1 °F 1027.3 in NW 25.9 mph 25.9 mph 70 % 0.0 in 139.0 W/m2 CLR
09:56 7.2 °F 2.1 °F 1027.3 in NW 37.0 mph 37.0 mph 70 % 0.0 in 118.0 W/m2 CLR
10:09 7.8 °F 2.8 °F 1027.3 in NW 25.9 mph 25.9 mph 71 % 0.0 in 171.0 W/m2 CLR
10:14 7.8 °F 2.8 °F 1027.3 in NW 31.5 mph 31.5 mph 71 % 0.0 in 211.0 W/m2 CLR
10:19 7.8 °F 2.8 °F 1027.3 in NW 22.2 mph 22.2 mph 71 % 0.0 in 234.0 W/m2 CLR
10:24 7.8 °F 2.8 °F 1027.3 in NNW 30.6 mph 30.6 mph 71 % 0.0 in 258.0 W/m2 CLR
10:29 7.8 °F 2.7 °F 1027.3 in NW 31.5 mph 31.5 mph 70 % 0.0 in 237.0 W/m2 CLR
10:39 8.3 °F 3.2 °F 1027.3 in NW 27.8 mph 27.8 mph 70 % 0.0 in 234.0 W/m2 CLR
10:49 8.3 °F 3.0 °F 1027.3 in NW 32.2 mph 32.2 mph 69 % 0.0 in 297.0 W/m2 CLR
10:59 8.3 °F 2.1 °F 1027.7 in NNW 38.9 mph 38.9 mph 65 % 0.0 in 334.0 W/m2 CLR
11:14 9.4 °F 2.9 °F 1027.7 in NNW 35.2 mph 35.2 mph 64 % 0.0 in 353.0 W/m2 CLR
11:19 9.4 °F 2.7 °F 1027.7 in NW 33.3 mph 33.3 mph 63 % 0.0 in 366.0 W/m2 CLR
11:24 9.4 °F 2.5 °F 1027.7 in NNW 42.6 mph 42.6 mph 62 % 0.0 in 373.0 W/m2 CLR
11:29 9.4 °F 2.5 °F 1027.7 in NW 30.6 mph 30.6 mph 62 % 0.0 in 381.0 W/m2 CLR
11:34 9.4 °F 2.5 °F 1027.7 in NNW 38.9 mph 38.9 mph 62 % 0.0 in 390.0 W/m2 CLR
11:39 10.0 °F 3.1 °F 1027.7 in NNW 29.6 mph 29.6 mph 62 % 0.0 in 385.0 W/m2 CLR
11:44 10.0 °F 2.6 °F 1027.3 in NNW 35.2 mph 35.2 mph 60 % 0.0 in 397.0 W/m2 CLR
11:49 10.0 °F 2.6 °F 1027.3 in NW 33.3 mph 33.3 mph 60 % 0.0 in 401.0 W/m2 CLR
12:09 10.6 °F 2.4 °F 1027.7 in NNW 38.9 mph 38.9 mph 57 % 0.0 in 431.0 W/m2 CLR
12:14 10.6 °F 2.4 °F 1027.7 in NNW 41.8 mph 41.8 mph 57 % 0.0 in 427.0 W/m2 CLR
12:19 10.6 °F 2.4 °F 1027.7 in NNW 35.2 mph 35.2 mph 57 % 0.0 in 431.0 W/m2 CLR
12:24 10.6 °F 2.4 °F 1027.7 in North 33.3 mph 33.3 mph 57 % 0.0 in 434.0 W/m2 CLR
12:29 10.6 °F 2.4 °F 1027.3 in NNW 27.4 mph 27.4 mph 57 % 0.0 in 431.0 W/m2 CLR
12:34 10.6 °F 2.4 °F 1027.7 in NNW 42.6 mph 42.6 mph 57 % 0.0 in 436.0 W/m2 CLR
12:39 10.6 °F 2.4 °F 1027.3 in NNW 35.2 mph 35.2 mph 57 % 0.0 in 450.0 W/m2 CLR
12:49 10.6 °F 2.6 °F 1027.3 in NNW 29.6 mph 29.6 mph 58 % 0.0 in 403.0 W/m2 CLR
12:54 10.6 °F 2.4 °F 1027.3 in NNW 27.8 mph 27.8 mph 57 % 0.0 in 352.0 W/m2 CLR
12:59 10.6 °F 2.1 °F 1027.3 in NNW 24.1 mph 24.1 mph 56 % 0.0 in 439.0 W/m2 CLR
13:04 10.6 °F 2.1 °F 1027.0 in NNW 27.8 mph 27.8 mph 56 % 0.0 in 438.0 W/m2 CLR
13:09 11.1 °F 2.4 °F 1027.0 in NW 37.0 mph 37.0 mph 55 % 0.0 in 446.0 W/m2 CLR
13:19 11.1 °F 2.2 °F 1027.0 in North 31.5 mph 31.5 mph 54 % 0.0 in 434.0 W/m2 CLR
13:24 11.1 °F 2.4 °F 1026.6 in WNW 29.6 mph 29.6 mph 55 % 0.0 in 432.0 W/m2 CLR
13:29 11.7 °F 2.7 °F 1026.6 in North 38.6 mph 38.6 mph 54 % 0.0 in 432.0 W/m2 CLR
13:34 11.7 °F 2.9 °F 1026.6 in NNW 33.3 mph 33.3 mph 55 % 0.0 in 434.0 W/m2 CLR
13:39 11.7 °F 2.7 °F 1026.6 in NNW 29.0 mph 29.0 mph 54 % 0.0 in 436.0 W/m2 CLR
13:44 11.7 °F 2.7 °F 1026.6 in North 29.6 mph 29.6 mph 54 % 0.0 in 443.0 W/m2 CLR
13:54 11.7 °F 2.4 °F 1026.3 in NNW 31.5 mph 31.5 mph 53 % 0.0 in 418.0 W/m2 CLR
13:59 12.2 °F 2.9 °F 1026.3 in NW 37.0 mph 37.0 mph 53 % 0.0 in 427.0 W/m2 CLR
14:04 12.2 °F 2.7 °F 1026.3 in North 35.2 mph 35.2 mph 52 % 0.0 in 418.0 W/m2 CLR
14:09 12.2 °F 2.7 °F 1026.3 in NNW 33.3 mph 33.3 mph 52 % 0.0 in 406.0 W/m2 CLR
14:14 12.2 °F 2.9 °F 1026.0 in NW 31.5 mph 31.5 mph 53 % 0.0 in 390.0 W/m2 CLR
14:19 11.7 °F 2.1 °F 1026.0 in North 32.2 mph 32.2 mph 52 % 0.0 in 387.0 W/m2 CLR
14:34 12.2 °F 2.7 °F 1026.0 in NNW 29.6 mph 29.6 mph 52 % 0.0 in 367.0 W/m2 CLR
14:39 12.2 °F 2.7 °F 1025.6 in NNW 20.4 mph 20.6 mph 52 % 0.0 in 359.0 W/m2 CLR
14:41 12.2 °F 2.4 °F 1025.6 in NNW 27.8 mph 27.8 mph 51 % 0.0 in 359.0 W/m2 CLR
14:46 12.8 °F 2.9 °F 1025.6 in NW 31.5 mph 31.5 mph 51 % 0.0 in 359.0 W/m2 CLR
14:51 12.8 °F 3.2 °F 1025.6 in NNW 22.5 mph 22.5 mph 52 % 0.0 in 348.0 W/m2 CLR
15:01 12.8 °F 2.9 °F 1025.3 in NNW 14.8 mph 14.8 mph 51 % 0.0 in 255.0 W/m2 CLR
15:06 12.2 °F 2.4 °F 1025.3 in NNW 27.8 mph 27.8 mph 51 % 0.0 in 283.0 W/m2 CLR
15:11 12.2 °F 2.7 °F 1025.3 in NNW 20.4 mph 20.4 mph 52 % 0.0 in 297.0 W/m2 CLR
15:16 12.2 °F 2.7 °F 1025.3 in NNW 20.4 mph 20.4 mph 52 % 0.0 in 343.0 W/m2 CLR
15:21 12.2 °F 2.7 °F 1024.9 in NNW 29.6 mph 29.6 mph 52 % 0.0 in 345.0 W/m2 CLR
15:26 12.8 °F 3.2 °F 1025.3 in NNW 24.1 mph 24.1 mph 52 % 0.0 in 313.0 W/m2 CLR
15:31 12.8 °F 3.2 °F 1025.3 in NNW 27.8 mph 27.8 mph 52 % 0.0 in 262.0 W/m2 CLR
15:42 12.2 °F 2.7 °F 1024.9 in WNW 16.7 mph 16.7 mph 52 % 0.0 in 227.0 W/m2 CLR
15:57 11.7 °F 2.1 °F 1024.9 in North 19.3 mph 19.3 mph 52 % 0.0 in 70.0 W/m2 CLR
16:02 11.7 °F 2.4 °F 1024.9 in NW 13.0 mph 13.0 mph 53 % 0.0 in 65.0 W/m2 FEW
16:12 11.1 °F 2.2 °F 1024.9 in North 16.7 mph 16.7 mph 54 % 0.0 in 67.0 W/m2 SCT
16:32 11.1 °F 2.4 °F 1024.9 in North 16.7 mph 16.7 mph 55 % 0.0 in 49.0 W/m2 SCT
16:42 11.1 °F 2.4 °F 1024.9 in NNE 13.0 mph 13.0 mph 55 % 0.0 in 30.0 W/m2 BKN
16:52 10.6 °F 2.1 °F 1024.9 in NNE 9.3 mph 9.3 mph 56 % 0.0 in 12.0 W/m2 BKN
17:07 10.6 °F 2.4 °F 1024.6 in NNW 14.8 mph 14.8 mph 57 % 0.0 in 9.0 W/m2 BKN
17:12 10.0 °F 1.9 °F 1024.6 in North 13.0 mph 13.0 mph 57 % 0.0 in 9.0 W/m2 BKN
17:22 10.0 °F 2.1 °F 1024.6 in North 5.6 mph 5.8 mph 58 % 0.0 in 5.0 W/m2 OVC
17:27 10.0 °F 2.1 °F 1024.6 in Calm     58 % 0.0 in 0.0 W/m2 OVC
17:32 10.0 °F 2.1 °F 1024.6 in Calm     58 % 0.0 in 0.0 W/m2 OVC
17:37 10.0 °F 2.1 °F 1024.6 in Calm     58 % 0.0 in 0.0 W/m2 OVC
17:42 9.4 °F 1.6 °F 1024.6 in Calm     58 % 0.0 in 0.0 W/m2 CLR
17:47 9.4 °F 1.6 °F 1024.6 in Calm     58 % 0.0 in 0.0 W/m2 CLR
17:52 9.4 °F 1.8 °F 1024.6 in Calm     59 % 0.0 in 0.0 W/m2 CLR
17:57 9.4 °F 1.8 °F 1024.6 in Calm     59 % 0.0 in 0.0 W/m2 CLR
18:02 9.4 °F 1.8 °F 1024.6 in Calm     59 % 0.0 in 0.0 W/m2 CLR
18:07 9.4 °F 1.8 °F 1024.6 in Calm     59 % 0.0 in 0.0 W/m2 CLR
18:12 9.4 °F 2.1 °F 1024.6 in Calm     60 % 0.0 in 0.0 W/m2 CLR
18:17 9.4 °F 1.8 °F 1024.6 in Calm     59 % 0.0 in 0.0 W/m2 CLR
18:22 9.4 °F 1.8 °F 1024.6 in Calm     59 % 0.0 in 0.0 W/m2 CLR
18:23 9.4 °F 1.8 °F 1024.6 in Calm     59 % 0.0 in 0.0 W/m2 CLR
18:28 9.4 °F 2.1 °F 1024.6 in Calm     60 % 0.0 in 0.0 W/m2 CLR
18:33 8.9 °F 1.6 °F 1024.6 in Calm     60 % 0.0 in 0.0 W/m2 CLR
18:38 8.9 °F 1.6 °F 1024.6 in Calm     60 % 0.0 in 0.0 W/m2 CLR
18:43 8.9 °F 1.6 °F 1024.6 in Calm     60 % 0.0 in 0.0 W/m2 CLR
18:48 8.9 °F 1.6 °F 1024.6 in Calm     60 % 0.0 in 0.0 W/m2 CLR
18:53 8.3 °F 1.0 °F 1024.3 in Calm     60 % 0.0 in 0.0 W/m2 CLR
18:58 8.3 °F 1.0 °F 1024.3 in Calm     60 % 0.0 in 0.0 W/m2 CLR
19:03 8.3 °F 1.0 °F 1024.3 in Calm     60 % 0.0 in 0.0 W/m2 CLR
19:08 8.3 °F 1.0 °F 1024.3 in Calm     60 % 0.0 in 0.0 W/m2 CLR
19:13 7.8 °F 0.7 °F 1024.3 in Calm     61 % 0.0 in 0.0 W/m2 CLR
19:23 7.2 °F 0.4 °F 1024.3 in Calm     62 % 0.0 in 0.0 W/m2 CLR
19:28 7.2 °F 0.4 °F 1023.9 in Calm     62 % 0.0 in 0.0 W/m2 CLR
19:33 6.7 °F -0.1 °F 1023.9 in Calm     62 % 0.0 in 0.0 W/m2 CLR
19:38 6.1 °F -0.6 °F 1023.9 in Calm     62 % 0.0 in 0.0 W/m2 CLR
19:48 5.6 °F -0.9 °F 1023.9 in Calm     63 % 0.0 in 0.0 W/m2 CLR
19:53 5.6 °F -0.5 °F 1023.9 in Calm     65 % 0.0 in 0.0 W/m2 CLR
19:58 6.1 °F 0.0 °F 1023.9 in Calm     65 % 0.0 in 0.0 W/m2 CLR
20:03 6.1 °F 0.2 °F 1023.9 in Calm     66 % 0.0 in 0.0 W/m2 CLR
20:08 6.1 °F 0.2 °F 1023.9 in Calm     66 % 0.0 in 0.0 W/m2 CLR
20:18 6.7 °F 0.8 °F 1023.9 in Calm     66 % 0.0 in 0.0 W/m2 CLR
20:28 6.7 °F 0.8 °F 1023.9 in Calm     66 % 0.0 in 0.0 W/m2 CLR
20:38 6.7 °F 0.9 °F 1023.9 in Calm     67 % 0.0 in 0.0 W/m2 CLR
20:43 6.7 °F 0.9 °F 1023.9 in Calm     67 % 0.0 in 0.0 W/m2 CLR
20:48 6.7 °F 1.2 °F 1023.9 in Calm     68 % 0.0 in 0.0 W/m2 CLR
20:58 6.1 °F 0.8 °F 1023.6 in Calm     69 % 0.0 in 0.0 W/m2 CLR
21:03 6.1 °F 1.1 °F 1023.6 in Calm     70 % 0.0 in 0.0 W/m2 CLR
21:08 6.1 °F 1.2 °F 1023.9 in Calm     71 % 0.0 in 0.0 W/m2 CLR
21:18 6.1 °F 1.2 °F 1023.6 in Calm     71 % 0.0 in 0.0 W/m2 CLR
21:23 6.1 °F 1.2 °F 1023.6 in Calm     71 % 0.0 in 0.0 W/m2 CLR
21:28 5.6 °F 0.9 °F 1023.6 in Calm     72 % 0.0 in 0.0 W/m2 CLR
21:33 5.6 °F 0.9 °F 1023.6 in Calm     72 % 0.0 in 0.0 W/m2 CLR
21:38 5.6 °F 0.9 °F 1023.6 in Calm     72 % 0.0 in 0.0 W/m2 CLR
21:43 5.6 °F 0.9 °F 1023.6 in Calm     72 % 0.0 in 0.0 W/m2 CLR
21:48 5.6 °F 0.9 °F 1023.6 in Calm     72 % 0.0 in 0.0 W/m2 CLR
21:53 6.1 °F 1.6 °F 1023.6 in Calm     73 % 0.0 in 0.0 W/m2 CLR
22:03 6.1 °F 1.8 °F 1023.2 in Calm     74 % 0.0 in 0.0 W/m2 CLR
22:08 6.1 °F 1.8 °F 1023.2 in Calm     74 % 0.0 in 0.0 W/m2 CLR
22:13 6.1 °F 1.8 °F 1023.2 in Calm     74 % 0.0 in 0.0 W/m2 CLR
22:18 6.1 °F 2.0 °F 1022.9 in Calm     75 % 0.0 in 0.0 W/m2 CLR
22:33 6.1 °F 2.0 °F 1022.9 in Calm     75 % 0.0 in 0.0 W/m2 CLR
22:38 6.1 °F 2.0 °F 1023.2 in Calm     75 % 0.0 in 0.0 W/m2 CLR
22:40 6.1 °F 2.0 °F 1022.9 in Calm     75 % 0.0 in 0.0 W/m2 CLR
22:45 6.1 °F 2.0 °F 1022.9 in Calm     75 % 0.0 in 0.0 W/m2 CLR
22:55 6.1 °F 2.2 °F 1022.6 in Calm     76 % 0.0 in 0.0 W/m2 CLR
23:00 6.1 °F 2.2 °F 1022.9 in Calm     76 % 0.0 in 0.0 W/m2 CLR
23:10 6.1 °F 2.4 °F 1022.9 in Calm     77 % 0.0 in 0.0 W/m2 CLR
23:20 6.1 °F 2.4 °F 1022.9 in Calm     77 % 0.0 in 0.0 W/m2 CLR
23:25 6.7 °F 2.9 °F 1022.9 in Calm     77 % 0.0 in 0.0 W/m2 CLR
23:30 6.7 °F 2.9 °F 1022.9 in Calm     77 % 0.0 in 0.0 W/m2 CLR
23:35 6.7 °F 2.9 °F 1022.6 in Calm     77 % 0.0 in 0.0 W/m2 CLR
23:41 6.7 °F 2.9 °F 1022.6 in Calm     77 % 0.0 in 0.0 W/m2 CLR
23:46 6.7 °F 2.9 °F 1022.2 in Calm     77 % 0.0 in 0.0 W/m2 CLR
23:56 6.7 °F 2.7 °F 1022.2 in Calm     76 % 0.0 in 0.0 W/m2 CLR
Lo Temps de Massalio
Compliments of Weather Underground - 1 mb